Yorkana, Pennsylvania
Current Conditions -  °F | °C
As of 8:35 AM on Friday 19 Dec 2014 (Local Time) from KMDT Reporting Station
Overcast Overcast  
Wind Chill: -3°   Ceiling: 3000
Heat Index:   Visibility: 10mi
Dew Point: -4°   Wind: 12mph
Humidity: 64%   Direction: 300°WNW
Pressure: 30.11"   Gusts: NA
Location:  40.0152°N, 76.5974°W
Report Text: KMDT 191335Z 30010KT 10SM OVC030 02/M04 A3011 RMK AO2 T00171044
Loading
Personal Weather Stations






























Interactive Weather Map New forecast layout! Learn more

10-Day Weather Forecast

Advertisements
Track Severe Weather on mobile